Time;durP1;ratioP1;P1;durP2;ratioP2;P2;SDS_P1;SDS_P2;PMS_P1;PMS_P2;Temp;Humidity;BMP_temperature;BMP_pressure;BME280_temperature;BME280_humidity;BME280_pressure;Samples;Min_cycle;Max_cycle;Signal;HPM_P1;HPM_P2
2023/03/29 00:02:12;;;;;;;9.88;3.00;;;-3.90;99.90;;;;;;4887257;29;20048;-63
2023/03/29 00:04:40;;;;;;;14.57;2.33;;;-3.90;99.90;;;;;;4888508;29;20059;-63
2023/03/29 00:07:07;;;;;;;4.28;2.03;;;-4.00;99.90;;;;;;4885345;29;20072;-63
2023/03/29 00:09:34;;;;;;;12.38;3.20;;;-4.10;99.90;;;;;;4889292;29;20608;-70
2023/03/29 00:12:02;;;;;;;9.70;2.20;;;-4.10;99.90;;;;;;4889364;29;20087;-68
2023/03/29 00:14:29;;;;;;;10.18;1.92;;;-4.20;99.90;;;;;;4889255;29;20040;-62
2023/03/29 00:16:57;;;;;;;11.15;2.88;;;-4.20;99.90;;;;;;4887948;29;20053;-65
2023/03/29 00:19:25;;;;;;;10.50;2.85;;;-4.30;99.90;;;;;;4890955;29;20052;-64
2023/03/29 00:21:52;;;;;;;24.50;4.07;;;-4.30;99.90;;;;;;4887515;29;20053;-62
2023/03/29 00:24:19;;;;;;;30.52;4.13;;;-4.40;99.90;;;;;;4892335;29;20143;-65
2023/03/29 00:26:47;;;;;;;21.63;4.85;;;-4.40;99.90;;;;;;4888153;29;20148;-65
2023/03/29 00:29:14;;;;;;;44.38;6.40;;;-4.50;99.90;;;;;;4890423;29;20060;-63
2023/03/29 00:31:43;;;;;;;40.20;4.43;;;-4.50;99.90;;;;;;4879534;29;20067;-64
2023/03/29 00:34:10;;;;;;;36.30;5.53;;;-4.50;99.90;;;;;;4876747;29;20060;-65
2023/03/29 00:36:39;;;;;;;32.53;6.13;;;-4.60;99.90;;;;;;4886969;29;20554;-66
2023/03/29 00:39:06;;;;;;;28.52;5.93;;;-4.60;99.90;;;;;;4883995;29;20499;-64
2023/03/29 00:41:33;;;;;;;22.23;4.45;;;-4.60;99.90;;;;;;4890265;29;20056;-69
2023/03/29 00:44:03;;;;;;;22.95;4.70;;;-4.70;99.90;;;;;;4888181;29;20052;-62
2023/03/29 00:46:31;;;;;;;29.40;5.40;;;-4.70;99.90;;;;;;4888414;29;20071;-65
2023/03/29 00:49:06;;;;;;;30.35;5.18;;;-4.70;99.90;;;;;;4887843;29;20536;-67
2023/03/29 00:51:36;;;;;;;21.58;4.70;;;-4.80;99.90;;;;;;4887592;29;20045;-66
2023/03/29 00:54:13;;;;;;;18.80;3.57;;;-4.80;99.90;;;;;;4867774;29;20076;-68
2023/03/29 00:56:43;;;;;;;16.73;4.43;;;-4.90;99.90;;;;;;4871061;29;20052;-63
2023/03/29 00:59:14;;;;;;;16.10;2.92;;;-4.90;99.90;;;;;;4886657;29;20056;-69
2023/03/29 01:01:53;;;;;;;20.35;2.80;;;-5.00;99.90;;;;;;4886265;29;20044;-68
2023/03/29 01:04:24;;;;;;;21.40;3.17;;;-5.10;99.90;;;;;;4887576;29;20056;-63
2023/03/29 01:06:57;;;;;;;15.98;3.17;;;-5.10;99.90;;;;;;4885876;29;20294;-67
2023/03/29 01:09:28;;;;;;;13.47;3.77;;;-5.10;99.90;;;;;;4884630;29;20060;-66
2023/03/29 01:12:00;;;;;;;16.40;2.57;;;-5.20;99.90;;;;;;4889804;29;20143;-63
2023/03/29 01:14:40;;;;;;;13.37;3.13;;;-5.20;99.90;;;;;;4886779;29;20048;-62
2023/03/29 01:17:11;;;;;;;22.80;3.27;;;-5.20;99.90;;;;;;4882684;29;20041;-64
2023/03/29 01:19:44;;;;;;;11.47;4.03;;;-5.30;99.90;;;;;;4878970;29;20049;-62
2023/03/29 01:22:24;;;;;;;28.40;3.53;;;-5.30;99.90;;;;;;4888375;29;20056;-64
2023/03/29 01:25:25;;;;;;;15.20;3.20;;;-5.30;99.90;;;;;;4883561;29;20746;-63
2023/03/29 01:28:07;;;;;;;10.70;3.55;;;-5.30;99.90;;;;;;4887417;29;20061;-62
2023/03/29 01:31:02;;;;;;;14.20;3.57;;;-5.40;99.90;;;;;;4888117;29;20104;-64
2023/03/29 01:33:43;;;;;;;5.47;2.40;;;-5.40;99.90;;;;;;4873343;29;20060;-65
2023/03/29 01:36:33;;;;;;;21.40;3.07;;;-5.50;99.90;;;;;;4888414;29;20075;-65
2023/03/29 01:39:04;;;;;;;;;;;-5.50;99.90;;;;;;4891526;29;20086;-67
2023/03/29 01:41:44;;;;;;;11.67;3.20;;;-5.50;99.90;;;;;;4886779;29;19978;-66
2023/03/29 01:44:32;;;;;;;7.30;2.50;;;-5.50;99.90;;;;;;4892814;29;20044;-65
2023/03/29 01:47:12;;;;;;;13.43;3.93;;;-5.60;99.90;;;;;;4889805;29;20063;-65
2023/03/29 01:50:04;;;;;;;10.10;2.72;;;-5.60;99.90;;;;;;4890449;29;20163;-61
2023/03/29 01:52:36;;;;;;;5.10;1.87;;;-5.60;99.90;;;;;;4887487;29;20075;-66
2023/03/29 01:55:16;;;;;;;7.10;3.33;;;-5.70;99.90;;;;;;4883465;29;20063;-64
2023/03/29 01:57:45;;;;;;;4.97;1.77;;;-5.70;99.90;;;;;;4891532;29;20052;-63
2023/03/29 02:00:18;;;;;;;6.73;1.67;;;-5.70;99.90;;;;;;4891077;29;20143;-64
2023/03/29 02:02:47;;;;;;;5.20;2.37;;;-5.80;99.90;;;;;;4894356;29;20072;-65
2023/03/29 02:05:15;;;;;;;6.67;1.80;;;-5.80;99.90;;;;;;4891114;29;20455;-61
2023/03/29 02:07:44;;;;;;;5.23;1.43;;;-5.80;99.90;;;;;;4891556;29;20139;-62
2023/03/29 02:10:13;;;;;;;3.25;1.70;;;-5.80;99.90;;;;;;4891270;29;20068;-63
2023/03/29 02:12:41;;;;;;;4.57;1.80;;;-5.80;99.90;;;;;;4893659;29;20054;-61
2023/03/29 02:15:13;;;;;;;4.03;1.20;;;-5.80;99.90;;;;;;4887517;29;20064;-66
2023/03/29 02:17:42;;;;;;;4.10;1.17;;;-5.80;99.90;;;;;;4892761;29;20052;-66
2023/03/29 02:20:21;;;;;;;4.83;1.80;;;-5.80;99.90;;;;;;4890658;29;20433;-62
2023/03/29 02:23:07;;;;;;;3.70;1.30;;;-5.90;99.90;;;;;;4891589;29;20411;-62
2023/03/29 02:25:36;;;;;;;3.83;1.10;;;-5.90;99.90;;;;;;4889017;29;20055;-67
2023/03/29 02:28:05;;;;;;;3.93;1.20;;;-5.80;99.90;;;;;;4893106;29;20837;-60
2023/03/29 02:30:42;;;;;;;3.00;1.87;;;-5.80;99.90;;;;;;4883788;29;20051;-69
2023/03/29 02:33:15;;;;;;;1.93;1.10;;;-5.80;99.90;;;;;;4889900;29;20087;-67
2023/03/29 02:35:57;;;;;;;4.17;1.27;;;-5.80;99.90;;;;;;4892241;29;20061;-65
2023/03/29 02:38:26;;;;;;;1.73;1.63;;;-5.90;99.90;;;;;;4877687;29;20397;-61
2023/03/29 02:40:55;;;;;;;5.27;1.47;;;-5.90;99.90;;;;;;4889960;29;20058;-64
2023/03/29 02:43:24;;;;;;;3.87;1.50;;;-5.90;99.90;;;;;;4887974;29;20128;-60
2023/03/29 02:45:52;;;;;;;3.67;1.65;;;-5.90;99.90;;;;;;4888569;29;20478;-64
2023/03/29 02:48:23;;;;;;;6.37;1.80;;;-5.90;99.90;;;;;;4876580;29;20053;-63
2023/03/29 02:50:55;;;;;;;4.20;1.43;;;-6.00;99.90;;;;;;4888290;29;20132;-64
2023/03/29 02:53:27;;;;;;;7.23;1.47;;;-6.00;99.90;;;;;;4888582;29;20048;-64
2023/03/29 02:55:55;;;;;;;7.83;3.50;;;-6.00;99.90;;;;;;4891001;29;20660;-66
2023/03/29 02:58:25;;;;;;;9.57;2.03;;;-6.00;99.90;;;;;;4872842;29;20109;-64
2023/03/29 03:00:52;;;;;;;;;;;-6.10;99.90;;;;;;4891067;29;20088;-68
2023/03/29 03:03:19;;;;;;;4.53;1.33;;;-6.00;99.90;;;;;;4888756;29;20277;-62
2023/03/29 03:05:48;;;;;;;13.33;2.07;;;-6.10;99.90;;;;;;4880744;29;20052;-64
2023/03/29 03:08:15;;;;;;;14.60;2.27;;;-6.10;99.90;;;;;;4871517;29;20161;-64
2023/03/29 03:10:41;;;;;;;8.93;3.00;;;-6.10;99.90;;;;;;4888591;29;20055;-60
2023/03/29 03:13:08;;;;;;;7.87;1.93;;;-6.20;99.90;;;;;;4889057;29;20080;-66
2023/03/29 03:15:36;;;;;;;10.93;3.30;;;-6.20;99.90;;;;;;4889938;29;20057;-63
2023/03/29 03:18:03;;;;;;;9.40;2.03;;;-6.20;99.90;;;;;;4885098;29;20128;-63
2023/03/29 03:20:31;;;;;;;14.37;3.17;;;-6.20;99.90;;;;;;4871759;29;20495;-63
2023/03/29 03:22:58;;;;;;;5.83;2.70;;;-6.20;99.90;;;;;;4888419;29;20048;-64
2023/03/29 03:25:25;;;;;;;6.00;1.40;;;-6.20;99.90;;;;;;4882777;29;20394;-63
2023/03/29 03:27:52;;;;;;;8.47;1.60;;;-6.30;99.90;;;;;;4890675;29;20115;-65
2023/03/29 03:30:22;;;;;;;5.40;2.28;;;-6.30;99.90;;;;;;4888848;29;20084;-62
2023/03/29 03:33:10;;;;;;;14.13;3.50;;;-6.30;99.90;;;;;;4873760;29;20071;-62
2023/03/29 03:36:04;;;;;;;7.33;1.73;;;-6.30;99.90;;;;;;4873049;29;20048;-62
2023/03/29 03:38:34;;;;;;;22.13;2.37;;;-6.40;99.90;;;;;;4885178;29;20108;-65
2023/03/29 03:41:02;;;;;;;8.90;2.70;;;-6.40;99.90;;;;;;4887171;29;20064;-63
2023/03/29 03:43:33;;;;;;;14.50;2.05;;;-6.40;99.90;;;;;;4885748;29;20414;-66
2023/03/29 03:46:00;;;;;;;12.37;1.73;;;-6.40;99.90;;;;;;4872090;29;20048;-63
2023/03/29 03:48:28;;;;;;;18.53;2.77;;;-6.30;99.90;;;;;;4891760;29;20485;-63
2023/03/29 03:51:17;;;;;;;3.80;1.73;;;-6.30;99.90;;;;;;4885897;29;20750;-64
2023/03/29 03:53:44;;;;;;;11.00;1.73;;;-6.30;99.90;;;;;;4868704;29;20215;-67
2023/03/29 03:56:12;;;;;;;15.00;2.67;;;-6.30;99.90;;;;;;4890634;29;20051;-68
2023/03/29 03:58:57;;;;;;;8.03;3.33;;;-6.30;99.90;;;;;;4884485;29;21016;-68
2023/03/29 04:01:26;;;;;;;9.37;1.93;;;-6.30;99.90;;;;;;4875005;29;20060;-65
2023/03/29 04:04:09;;;;;;;7.33;2.10;;;-6.30;99.90;;;;;;4882880;29;20064;-62
2023/03/29 04:06:37;;;;;;;8.60;2.67;;;-6.30;99.90;;;;;;4871835;29;20053;-65
2023/03/29 04:09:24;;;;;;;8.00;1.77;;;-6.30;99.90;;;;;;4885779;29;20705;-66
2023/03/29 04:12:06;;;;;;;7.63;2.23;;;-6.30;99.90;;;;;;4888057;29;20570;-64
2023/03/29 04:14:34;;;;;;;14.80;2.03;;;-6.30;99.90;;;;;;4886046;29;20387;-68
2023/03/29 04:17:07;;;;;;;4.30;1.40;;;-6.30;99.90;;;;;;4871515;29;20048;-63
2023/03/29 04:19:54;;;;;;;11.53;1.90;;;-6.20;99.90;;;;;;4877925;29;20779;-61
2023/03/29 04:22:21;;;;;;;7.43;1.87;;;-6.20;99.90;;;;;;4872947;29;20053;-64
2023/03/29 04:24:48;;;;;;;7.83;2.30;;;-6.20;99.90;;;;;;4885331;29;20069;-63
2023/03/29 04:27:35;;;;;;;6.73;2.73;;;-6.20;99.90;;;;;;4885850;29;20120;-62
2023/03/29 04:30:08;;;;;;;10.30;2.80;;;-6.10;99.90;;;;;;4873413;29;20673;-63
2023/03/29 04:32:58;;;;;;;18.87;5.50;;;-6.10;99.90;;;;;;4892781;29;20056;-62
2023/03/29 04:35:25;;;;;;;12.63;3.63;;;-6.00;99.90;;;;;;4887550;29;20108;-63
2023/03/29 04:37:53;;;;;;;15.50;3.43;;;-5.90;99.90;;;;;;4881269;29;20080;-64
2023/03/29 04:40:21;;;;;;;10.80;2.20;;;-5.90;99.90;;;;;;4887972;29;20056;-63
2023/03/29 04:42:58;;;;;;;10.63;3.10;;;-5.90;99.90;;;;;;4867336;29;20062;-64
2023/03/29 04:45:26;;;;;;;11.47;5.37;;;-5.80;99.90;;;;;;4857048;29;20455;-67
2023/03/29 04:48:08;;;;;;;6.30;4.33;;;-5.80;99.90;;;;;;4885584;29;20411;-62
2023/03/29 04:50:38;;;;;;;12.35;4.13;;;-5.70;99.90;;;;;;4888285;29;20151;-62
2023/03/29 04:53:06;;;;;;;11.30;3.20;;;-5.70;99.90;;;;;;4881276;29;20067;-63
2023/03/29 04:55:33;;;;;;;13.53;4.30;;;-5.60;99.90;;;;;;4874201;29;20494;-67
2023/03/29 04:58:01;;;;;;;11.87;2.87;;;-5.50;99.90;;;;;;4878232;29;20076;-62
2023/03/29 05:00:33;;;;;;;8.47;2.10;;;-5.50;99.90;;;;;;4887447;29;20065;-63
2023/03/29 05:03:03;;;;;;;6.23;1.93;;;-5.40;99.90;;;;;;4886238;29;20053;-65
2023/03/29 05:05:34;;;;;;;10.87;2.20;;;-5.40;99.90;;;;;;4888391;29;20060;-65
2023/03/29 05:08:02;;;;;;;13.70;3.33;;;-5.30;99.90;;;;;;4885794;29;20048;-69
2023/03/29 05:10:40;;;;;;;7.20;2.03;;;-5.30;99.90;;;;;;4881312;29;20048;-65
2023/03/29 05:13:07;;;;;;;7.90;2.72;;;-5.20;99.90;;;;;;4885138;29;20079;-63
2023/03/29 05:15:34;;;;;;;20.53;3.33;;;-5.20;99.90;;;;;;4868860;29;20060;-66
2023/03/29 05:18:02;;;;;;;12.57;2.83;;;-5.10;99.90;;;;;;4882966;29;20758;-63
2023/03/29 05:20:30;;;;;;;5.83;2.97;;;-5.00;99.90;;;;;;4866150;29;20131;-65
2023/03/29 05:22:58;;;;;;;14.77;3.30;;;-5.00;99.90;;;;;;4884783;29;20139;-62
2023/03/29 05:25:48;;;;;;;8.20;3.33;;;-4.90;99.90;;;;;;4868753;29;20503;-62
2023/03/29 05:28:17;;;;;;;22.27;4.20;;;-4.80;99.90;;;;;;4885976;29;20071;-63
2023/03/29 05:30:44;;;;;;;7.37;2.73;;;-4.70;99.90;;;;;;4883643;29;20080;-70
2023/03/29 05:33:18;;;;;;;8.87;2.80;;;-4.60;99.90;;;;;;4882554;29;20429;-65
2023/03/29 05:35:45;;;;;;;5.63;2.60;;;-4.50;99.90;;;;;;4884233;29;20049;-63
2023/03/29 05:38:12;;;;;;;21.47;2.83;;;-4.40;99.90;;;;;;4888246;29;20199;-65
2023/03/29 05:40:40;;;;;;;12.63;2.83;;;-4.30;99.90;;;;;;4885649;29;20068;-65
2023/03/29 05:43:16;;;;;;;22.27;4.13;;;-4.20;99.90;;;;;;4888213;29;20048;-66
2023/03/29 05:45:43;;;;;;;15.60;3.80;;;-4.10;99.90;;;;;;4884008;29;20065;-62
2023/03/29 05:48:10;;;;;;;13.50;2.70;;;-4.00;99.90;;;;;;4869666;29;20057;-61
2023/03/29 05:50:40;;;;;;;18.25;5.47;;;-3.80;99.90;;;;;;4870832;29;20049;-66
2023/03/29 05:53:08;;;;;;;19.00;3.93;;;-3.70;99.90;;;;;;4886150;29;20067;-61
2023/03/29 05:55:36;;;;;;;31.73;3.97;;;-3.60;99.90;;;;;;4868042;29;20518;-61
2023/03/29 05:58:03;;;;;;;24.40;3.00;;;-3.40;99.90;;;;;;4867749;29;20137;-63
2023/03/29 06:00:35;;;;;;;38.67;4.57;;;-3.20;99.90;;;;;;4883902;29;20057;-61
2023/03/29 06:03:22;;;;;;;19.83;2.80;;;-3.10;99.90;;;;;;4864853;29;20075;-64
2023/03/29 06:05:56;;;;;;;14.85;3.67;;;-2.90;99.90;;;;;;4888333;29;20053;-63
2023/03/29 06:08:24;;;;;;;27.90;2.15;;;-2.60;99.90;;;;;;4882778;29;20180;-61
2023/03/29 06:11:07;;;;;;;22.15;2.67;;;-2.40;99.90;;;;;;4879604;29;20056;-62
2023/03/29 06:13:53;;;;;;;9.65;1.60;;;-2.30;99.90;;;;;;4882471;29;20122;-66
2023/03/29 06:16:20;;;;;;;12.25;2.03;;;-2.10;99.90;;;;;;4882491;29;20454;-65
2023/03/29 06:18:47;;;;;;;11.48;1.30;;;-1.90;99.90;;;;;;4869046;29;20051;-65
2023/03/29 06:21:14;;;;;;;8.55;2.05;;;-1.80;99.90;;;;;;4882402;29;20104;-61
2023/03/29 06:23:41;;;;;;;9.68;1.83;;;-1.70;99.90;;;;;;4888314;29;20065;-61
2023/03/29 06:26:09;;;;;;;11.60;2.00;;;-1.60;99.90;;;;;;4890665;29;20131;-61
2023/03/29 06:28:37;;;;;;;6.13;1.65;;;-1.50;99.90;;;;;;4888469;29;20143;-66
2023/03/29 06:31:04;;;;;;;10.38;1.60;;;-1.40;99.90;;;;;;4869647;29;20080;-62
2023/03/29 06:33:37;;;;;;;8.77;1.65;;;-1.30;99.90;;;;;;4886228;29;20063;-63
2023/03/29 06:36:27;;;;;;;5.32;2.40;;;-1.20;99.90;;;;;;4864627;29;20056;-61
2023/03/29 06:38:54;;;;;;;5.95;2.03;;;-1.10;99.90;;;;;;4888308;29;20056;-61
2023/03/29 06:41:54;;;;;;;;;;;-1.00;99.90;;;;;;4886713;29;20063;-65
2023/03/29 06:44:41;;;;;;;4.88;1.40;;;-0.90;99.90;;;;;;4847157;29;19935;-63
2023/03/29 06:47:17;;;;;;;1.92;0.80;;;-0.80;99.90;;;;;;4884133;29;20053;-61
2023/03/29 06:49:44;;;;;;;7.78;1.52;;;-0.80;99.90;;;;;;4870018;29;20044;-65
2023/03/29 06:52:30;;;;;;;6.97;0.80;;;-0.60;99.90;;;;;;4876285;29;20059;-63
2023/03/29 06:54:57;;;;;;;3.35;0.77;;;-0.60;99.90;;;;;;4870975;29;20056;-64
2023/03/29 06:57:24;;;;;;;5.82;0.80;;;-0.50;99.90;;;;;;4890531;29;20056;-65
2023/03/29 06:59:52;;;;;;;5.63;1.17;;;-0.50;99.90;;;;;;4882610;29;20518;-65
2023/03/29 07:02:30;;;;;;;6.07;1.88;;;-0.40;99.90;;;;;;4876713;29;20356;-61
2023/03/29 07:05:12;;;;;;;6.03;1.42;;;-0.30;99.90;;;;;;4887010;29;20506;-63
2023/03/29 07:10:52;;;;;;;7.30;1.00;;;-0.20;99.90;;;;;;4884284;29;20151;-64
2023/03/29 07:13:42;;;;;;;3.75;0.80;;;0.00;99.90;;;;;;4885895;29;20184;-69
2023/03/29 07:16:12;;;;;;;5.30;1.50;;;0.10;99.90;;;;;;4881739;29;20063;-61
2023/03/29 07:19:03;;;;;;;4.75;1.00;;;0.10;99.90;;;;;;4871083;29;20060;-63
2023/03/29 07:21:50;;;;;;;2.63;0.95;;;0.10;99.90;;;;;;4884353;29;20048;-66
2023/03/29 07:24:18;;;;;;;5.25;1.90;;;0.10;99.90;;;;;;4871467;29;20387;-62
2023/03/29 07:26:47;;;;;;;0.95;0.70;;;0.20;99.90;;;;;;4887919;29;20056;-62
2023/03/29 07:29:28;;;;;;;1.67;0.80;;;0.20;99.90;;;;;;4873585;29;20048;-62
2023/03/29 07:31:56;;;;;;;4.53;1.23;;;0.30;99.90;;;;;;4882532;29;20188;-63
2023/03/29 07:34:51;;;;;;;2.47;1.13;;;0.40;99.90;;;;;;4882636;29;20440;-62
2023/03/29 07:37:36;;;;;;;2.30;0.85;;;0.40;99.90;;;;;;4880796;29;20051;-60
2023/03/29 07:40:15;;;;;;;5.45;1.48;;;0.40;99.90;;;;;;4887108;29;20059;-61
2023/03/29 07:43:06;;;;;;;7.95;1.70;;;0.50;99.90;;;;;;4883526;29;20451;-64
2023/03/29 07:45:34;;;;;;;5.97;1.35;;;0.50;99.90;;;;;;4885982;29;20052;-63
2023/03/29 07:48:08;;;;;;;10.00;1.65;;;0.60;99.90;;;;;;4884184;29;20541;-62
2023/03/29 07:50:49;;;;;;;4.22;1.27;;;0.60;99.90;;;;;;4886698;29;20208;-61
2023/03/29 07:53:19;;;;;;;;;;;0.70;99.90;;;;;;4876229;29;20044;-62
2023/03/29 07:55:48;;;;;;;7.40;1.17;;;0.80;99.90;;;;;;4885493;29;19975;-65
2023/03/29 07:58:33;;;;;;;6.20;1.52;;;0.80;99.90;;;;;;4890871;29;20054;-63
2023/03/29 08:01:01;;;;;;;2.17;1.20;;;0.90;99.90;;;;;;4869674;29;20079;-61
2023/03/29 08:03:47;;;;;;;4.28;1.23;;;1.00;99.90;;;;;;4885886;29;20646;-68
2023/03/29 08:06:15;;;;;;;1.77;1.00;;;1.10;99.90;;;;;;4885306;29;20069;-62
2023/03/29 08:08:42;;;;;;;1.60;1.30;;;1.20;99.90;;;;;;4872052;29;20411;-63
2023/03/29 08:11:14;;;;;;;3.67;0.93;;;1.30;99.90;;;;;;4885981;29;20429;-66
2023/03/29 08:13:52;;;;;;;6.57;2.15;;;1.40;99.90;;;;;;4868888;29;20167;-65
2023/03/29 08:16:25;;;;;;;4.25;1.73;;;1.40;99.90;;;;;;4888454;29;20060;-63
2023/03/29 08:19:06;;;;;;;5.88;1.90;;;1.40;99.90;;;;;;4884728;29;20451;-60
2023/03/29 08:21:50;;;;;;;6.53;1.45;;;1.50;99.90;;;;;;4884194;29;20055;-64
2023/03/29 08:24:20;;;;;;;2.35;0.70;;;1.60;99.90;;;;;;4886592;29;20057;-64
2023/03/29 08:26:51;;;;;;;3.13;1.25;;;1.70;99.90;;;;;;4888406;29;20049;-62
2023/03/29 08:29:19;;;;;;;7.40;2.67;;;1.70;99.90;;;;;;4886534;29;20464;-62
2023/03/29 08:31:46;;;;;;;2.65;0.82;;;1.70;99.90;;;;;;4879992;29;20117;-61
2023/03/29 08:34:13;;;;;;;2.47;1.10;;;1.70;99.90;;;;;;4871730;29;20580;-60
2023/03/29 08:36:57;;;;;;;4.78;0.70;;;1.70;99.90;;;;;;4881563;29;20314;-60
2023/03/29 08:39:34;;;;;;;3.92;1.10;;;1.80;99.90;;;;;;4882563;29;20056;-61
2023/03/29 08:42:43;;;;;;;1.48;0.80;;;1.80;99.90;;;;;;4874457;29;20070;-62
2023/03/29 08:45:37;;;;;;;1.77;1.15;;;1.90;99.90;;;;;;4886860;29;20160;-64
2023/03/29 08:48:15;;;;;;;6.32;1.27;;;1.90;99.90;;;;;;4869329;29;20064;-64
2023/03/29 08:50:51;;;;;;;2.47;0.50;;;2.00;99.90;;;;;;4885184;29;20123;-63
2023/03/29 08:53:34;;;;;;;1.33;0.50;;;1.90;99.90;;;;;;4881115;29;20052;-64
2023/03/29 08:56:31;;;;;;;1.33;0.73;;;2.00;99.90;;;;;;4863676;29;20512;-63
2023/03/29 08:59:16;;;;;;;4.85;1.20;;;2.10;99.90;;;;;;4886314;29;20060;-62
2023/03/29 09:01:44;;;;;;;2.83;0.43;;;2.20;99.90;;;;;;4881444;29;20136;-62
2023/03/29 09:04:41;;;;;;;5.60;0.88;;;2.10;99.90;;;;;;4886818;29;20115;-65
2023/03/29 09:07:28;;;;;;;2.10;0.45;;;2.20;99.90;;;;;;4879550;29;20052;-66
2023/03/29 09:09:55;;;;;;;2.45;0.70;;;2.20;99.90;;;;;;4884492;29;20510;-62
2023/03/29 09:12:51;;;;;;;2.97;0.45;;;2.30;99.90;;;;;;4870159;29;20139;-62
2023/03/29 09:15:44;;;;;;;1.58;0.30;;;2.30;99.90;;;;;;4884102;29;20055;-61
2023/03/29 09:18:50;;;;;;;1.70;0.70;;;2.30;99.90;;;;;;4885953;29;20056;-63
2023/03/29 09:21:42;;;;;;;2.17;0.60;;;2.30;99.90;;;;;;4882054;29;20084;-63
2023/03/29 09:24:31;;;;;;;4.03;0.95;;;2.20;99.90;;;;;;4867095;29;20085;-61
2023/03/29 09:27:31;;;;;;;4.22;0.63;;;2.40;99.90;;;;;;4882771;29;20084;-61
2023/03/29 09:30:27;;;;;;;2.72;0.70;;;2.50;99.90;;;;;;4883183;29;20048;-69
2023/03/29 09:33:04;;;;;;;;;;;2.60;99.90;;;;;;4882628;29;20139;-60
2023/03/29 09:35:54;;;;;;;3.25;1.13;;;2.60;99.90;;;;;;4867041;29;19927;-60
2023/03/29 09:38:21;;;;;;;0.90;0.80;;;2.60;99.90;;;;;;4880421;29;20550;-61
2023/03/29 09:41:03;;;;;;;7.28;0.82;;;2.50;99.90;;;;;;4863254;29;20068;-63
2023/03/29 09:43:35;;;;;;;3.30;1.13;;;2.50;99.90;;;;;;4872442;29;20076;-62
2023/03/29 09:46:14;;;;;;;6.93;0.90;;;2.50;99.90;;;;;;4883182;29;20052;-69
2023/03/29 09:48:43;;;;;;;22.48;4.47;;;2.50;99.90;;;;;;4875729;29;20136;-61
2023/03/29 09:51:11;;;;;;;1.67;0.70;;;2.60;99.90;;;;;;4878555;29;20085;-63
2023/03/29 09:53:39;;;;;;;2.97;0.98;;;2.50;99.90;;;;;;4871198;29;20059;-64
2023/03/29 09:56:19;;;;;;;1.08;1.00;;;2.60;99.90;;;;;;4871028;29;20055;-61
2023/03/29 09:58:50;;;;;;;3.47;1.33;;;2.50;99.90;;;;;;4889396;29;20159;-63
2023/03/29 10:01:18;;;;;;;0.63;0.52;;;2.40;99.90;;;;;;4886022;29;20677;-62
2023/03/29 10:03:51;;;;;;;4.07;0.60;;;2.50;99.90;;;;;;4874759;29;20053;-66
2023/03/29 10:06:20;;;;;;;5.13;3.08;;;2.40;99.90;;;;;;4882280;29;20053;-62
2023/03/29 10:08:55;;;;;;;0.43;0.40;;;2.10;99.90;;;;;;4889219;29;20460;-61
2023/03/29 10:11:37;;;;;;;4.40;1.65;;;2.00;99.90;;;;;;4878292;29;20056;-69
2023/03/29 10:14:15;;;;;;;6.95;0.80;;;2.10;99.90;;;;;;4889836;29;20049;-66
2023/03/29 10:16:44;;;;;;;1.58;0.80;;;2.00;99.90;;;;;;4888543;29;20059;-62
2023/03/29 10:19:33;;;;;;;0.85;0.70;;;1.90;99.90;;;;;;4885652;29;20061;-66
2023/03/29 10:22:04;;;;;;;1.02;0.85;;;1.90;99.90;;;;;;4887937;29;20495;-61
2023/03/29 10:24:31;;;;;;;1.85;0.90;;;1.90;99.90;;;;;;4889677;29;20064;-65
2023/03/29 10:27:05;;;;;;;1.90;0.80;;;1.80;99.90;;;;;;4888046;29;20177;-61
2023/03/29 10:29:38;;;;;;;1.63;1.10;;;1.80;99.90;;;;;;4886408;29;20072;-63
2023/03/29 10:32:21;;;;;;;4.22;0.47;;;1.80;99.90;;;;;;4890128;29;20541;-63
2023/03/29 10:34:50;;;;;;;4.75;1.13;;;1.90;99.90;;;;;;4889049;29;20124;-64
2023/03/29 10:37:18;;;;;;;2.15;0.47;;;1.90;99.90;;;;;;4889996;29;21022;-63
2023/03/29 10:39:47;;;;;;;2.25;0.73;;;1.90;99.90;;;;;;4889107;29;20083;-64
2023/03/29 10:42:17;;;;;;;5.15;0.82;;;1.90;99.90;;;;;;4889893;29;20529;-63
2023/03/29 10:44:56;;;;;;;0.75;0.60;;;2.00;99.90;;;;;;4889124;29;20143;-64
2023/03/29 10:47:24;;;;;;;0.63;0.47;;;2.00;99.90;;;;;;4886616;29;20049;-63
2023/03/29 10:49:54;;;;;;;3.00;0.95;;;2.00;99.90;;;;;;4889289;29;20305;-61
2023/03/29 10:52:23;;;;;;;1.02;0.40;;;2.10;99.90;;;;;;4887438;29;20064;-63
2023/03/29 10:54:53;;;;;;;0.55;0.52;;;2.00;99.90;;;;;;4888768;29;20040;-69
2023/03/29 10:57:26;;;;;;;;;;;2.00;99.90;;;;;;4889365;29;20056;-63
2023/03/29 11:00:31;;;;;;;1.38;0.50;;;1.90;99.90;;;;;;4884307;29;19932;-64
2023/03/29 11:03:07;;;;;;;0.73;0.50;;;1.90;99.90;;;;;;4886590;29;20445;-64
2023/03/29 11:06:06;;;;;;;0.98;0.47;;;1.90;99.90;;;;;;4888266;29;20045;-63
2023/03/29 11:08:42;;;;;;;0.70;0.70;;;2.00;99.90;;;;;;4888204;29;20128;-61
2023/03/29 11:11:16;;;;;;;2.47;0.77;;;2.00;99.90;;;;;;4885741;29;20072;-61
2023/03/29 11:13:56;;;;;;;0.88;0.88;;;2.00;99.90;;;;;;4881978;29;20087;-62
2023/03/29 11:16:25;;;;;;;0.30;0.30;;;1.90;99.90;;;;;;4883065;29;20064;-64
2023/03/29 11:19:08;;;;;;;0.80;0.80;;;1.90;99.90;;;;;;4887460;29;20040;-64
2023/03/29 11:21:45;;;;;;;0.70;0.43;;;1.80;99.90;;;;;;4886188;29;20055;-67
2023/03/29 11:24:27;;;;;;;2.42;1.05;;;1.70;99.90;;;;;;4888370;29;20590;-60
2023/03/29 11:27:06;;;;;;;0.63;0.52;;;1.70;99.90;;;;;;4886143;29;20049;-62
2023/03/29 11:29:57;;;;;;;1.85;0.68;;;1.70;99.90;;;;;;4886617;29;20465;-61
2023/03/29 11:32:44;;;;;;;1.40;0.80;;;1.60;99.90;;;;;;4886386;29;20056;-64
2023/03/29 11:35:23;;;;;;;2.50;0.80;;;1.60;99.90;;;;;;4886982;29;20097;-65
2023/03/29 11:38:14;;;;;;;1.60;1.38;;;1.70;99.90;;;;;;4890073;29;20056;-61
2023/03/29 11:40:41;;;;;;;1.08;0.90;;;1.80;99.90;;;;;;4886747;29;20057;-65
2023/03/29 11:43:21;;;;;;;1.10;0.75;;;1.80;99.90;;;;;;4889083;29;20044;-64
2023/03/29 11:46:28;;;;;;;1.67;1.02;;;1.80;99.90;;;;;;4891498;29;20430;-64
2023/03/29 11:49:03;;;;;;;1.77;0.90;;;1.80;99.90;;;;;;4831480;29;20053;-66
2023/03/29 11:51:50;;;;;;;2.08;1.08;;;1.70;99.90;;;;;;4828251;29;20082;-62
2023/03/29 11:54:29;;;;;;;1.98;1.20;;;1.70;99.90;;;;;;4870682;29;20567;-63
2023/03/29 11:57:17;;;;;;;1.35;1.00;;;1.80;99.90;;;;;;4888656;29;20535;-62
2023/03/29 12:00:01;;;;;;;1.77;1.10;;;1.80;99.90;;;;;;4888159;29;20353;-62
2023/03/29 12:02:53;;;;;;;1.88;1.20;;;1.80;99.90;;;;;;4886328;29;20234;-65
2023/03/29 12:05:26;;;;;;;2.65;1.10;;;1.90;99.90;;;;;;4882375;29;20523;-65
2023/03/29 12:08:11;;;;;;;1.95;1.30;;;1.90;99.90;;;;;;4889853;29;20048;-63
2023/03/29 12:10:54;;;;;;;3.28;1.30;;;1.90;99.90;;;;;;4889912;29;20065;-66
2023/03/29 12:13:32;;;;;;;2.10;1.17;;;1.90;99.90;;;;;;4886512;29;20048;-64
2023/03/29 12:16:07;;;;;;;3.45;1.38;;;1.80;99.90;;;;;;4885708;29;20143;-65
2023/03/29 12:18:47;;;;;;;3.47;1.13;;;1.90;99.90;;;;;;4886421;29;20369;-64
2023/03/29 12:21:18;;;;;;;4.03;1.30;;;2.00;99.90;;;;;;4882005;29;20049;-62
2023/03/29 12:23:47;;;;;;;1.88;1.15;;;2.00;99.90;;;;;;4872965;29;20327;-63
2023/03/29 12:26:33;;;;;;;3.25;0.90;;;2.20;99.90;;;;;;4887766;29;20143;-63
2023/03/29 12:29:13;;;;;;;3.53;1.20;;;2.20;99.90;;;;;;4885935;29;20446;-64
2023/03/29 12:32:07;;;;;;;2.38;1.23;;;2.00;99.90;;;;;;4887546;29;20089;-62
2023/03/29 12:35:03;;;;;;;4.60;1.33;;;2.00;99.90;;;;;;4883269;29;20060;-65
2023/03/29 12:37:51;;;;;;;1.65;1.23;;;2.00;99.90;;;;;;4889806;29;20123;-62
2023/03/29 12:40:59;;;;;;;5.50;1.83;;;2.00;99.90;;;;;;4847480;29;20061;-63
2023/03/29 12:43:48;;;;;;;3.08;1.13;;;2.00;99.90;;;;;;4810193;29;20077;-65
2023/03/29 12:46:24;;;;;;;1.38;1.20;;;1.90;99.90;;;;;;4879431;29;20048;-63
2023/03/29 12:49:00;;;;;;;3.17;1.58;;;2.00;99.90;;;;;;4886704;29;20064;-63
2023/03/29 12:51:33;;;;;;;3.53;1.77;;;2.00;99.90;;;;;;4883827;29;20213;-65
2023/03/29 12:54:14;;;;;;;6.90;2.20;;;2.00;99.90;;;;;;4888102;29;20051;-65
2023/03/29 12:56:57;;;;;;;1.45;1.30;;;2.00;99.90;;;;;;4889251;29;20095;-62
2023/03/29 12:59:46;;;;;;;4.10;1.52;;;2.00;99.90;;;;;;4884346;29;20059;-63
2023/03/29 13:02:12;;;;;;;2.33;1.55;;;2.00;99.90;;;;;;4885362;29;20052;-63
2023/03/29 13:04:42;;;;;;;3.80;1.58;;;2.00;99.90;;;;;;4887146;29;20421;-64
2023/03/29 13:07:21;;;;;;;4.15;2.13;;;1.90;99.90;;;;;;4882581;29;20714;-65
2023/03/29 13:09:52;;;;;;;2.70;1.88;;;1.80;99.90;;;;;;4884242;29;20048;-65
2023/03/29 13:12:29;;;;;;;3.95;2.40;;;1.80;99.90;;;;;;4888478;29;20048;-62
2023/03/29 13:15:19;;;;;;;3.25;2.90;;;1.80;99.90;;;;;;4888972;29;20456;-63
2023/03/29 13:18:17;;;;;;;4.32;2.28;;;1.80;99.90;;;;;;4886591;29;20384;-62
2023/03/29 13:21:01;;;;;;;2.47;2.17;;;1.70;99.90;;;;;;4884281;29;20060;-63
2023/03/29 13:23:37;;;;;;;4.93;2.17;;;1.70;99.90;;;;;;4883436;29;20159;-65
2023/03/29 13:26:22;;;;;;;2.28;1.95;;;1.70;99.90;;;;;;4887699;29;20056;-66
2023/03/29 13:28:55;;;;;;;4.38;3.00;;;1.70;99.90;;;;;;4884457;29;20092;-65
2023/03/29 13:31:55;;;;;;;2.80;1.95;;;1.80;99.90;;;;;;4887076;29;20041;-63
2023/03/29 13:34:47;;;;;;;6.13;3.15;;;1.80;99.90;;;;;;4887217;29;20080;-65
2023/03/29 13:37:22;;;;;;;4.03;1.92;;;1.70;99.90;;;;;;4885857;29;20055;-66
2023/03/29 13:39:52;;;;;;;4.95;1.92;;;1.80;99.90;;;;;;4888643;29;20091;-62